Lefkara — 3ETI6 — position and weather

sailwx.info

Track history (hours):
 
Tides and Currents Weather Stations Pressure Air Temp Water Temp Dewpoint Dewpoint Depression Visibility Wind Speed Wind Dir Waves Ship Positions

Lefkara

Last reported at 2018-Feb-20 05:38 UTC. Time now 2018-Feb-21 19:23 UTC.
Position N 29°45' W 095°11'.

Length 183 m; draft 8 m.

Type: Tanker. MMSI: 370573000.

Date/timePositionNaut miles runAvg speedWind from/ knotsBaromVisibWave heightAir tempDewpointWater temp
2018-Feb-20 05:38N 29°45' W 095°11'0 0.1
2018-Feb-20 05:30N 29°45' W 095°11'2 3.4
2018-Feb-20 04:52N 29°44' W 095°09'2 6.5
2018-Feb-20 04:29N 29°45' W 095°06'3 5.4
2018-Feb-20 04:00N 29°44' W 095°03'4 7.9
2018-Feb-20 03:30N 29°42' W 094°60'611.5
2018-Feb-20 03:00N 29°36' W 094°57'612.3
2018-Feb-20 02:30N 29°31' W 094°53'713.2
2018-Feb-20 02:00N 29°25' W 094°50'13 2.1
2018-Feb-19 19:43N 29°15' W 094°40'0 0.0
2018-Feb-19 19:28N 29°15' W 094°40'0 0.0
2018-Feb-19 17:16N 29°15' W 094°40'0 0.1
2018-Feb-19 16:40N 29°15' W 094°40'0 0.1
2018-Feb-19 16:19N 29°15' W 094°40'0 0.0
2018-Feb-19 15:01N 29°15' W 094°40'0 0.0
2018-Feb-19 14:49N 29°15' W 094°40'0 0.0
2018-Feb-19 14:19N 29°15' W 094°40'0 0.0
2018-Feb-19 13:46N 29°15' W 094°40'0 0.1
2018-Feb-19 13:28N 29°15' W 094°40'0 0.0
2018-Feb-19 10:52N 29°15' W 094°40'0 0.0
2018-Feb-19 10:07N 29°15' W 094°40'0 0.0
2018-Feb-19 09:34N 29°15' W 094°40'0 0.0
2018-Feb-19 09:28N 29°15' W 094°40'0 0.0
2018-Feb-19 08:55N 29°15' W 094°40'0 0.0
2018-Feb-19 08:25N 29°15' W 094°40'0 0.0
2018-Feb-19 07:55N 29°15' W 094°40'0 0.0
2018-Feb-19 07:28N 29°15' W 094°40'0 0.0
2018-Feb-19 06:52N 29°15' W 094°40'0 0.0
2018-Feb-19 05:19N 29°15' W 094°40'0 0.1
2018-Feb-19 04:58N 29°15' W 094°40'0 0.0
2018-Feb-19 04:28N 29°15' W 094°40'0 0.0
2018-Feb-18 08:40N 29°15' W 094°40'0 0.0
2018-Feb-18 07:25N 29°15' W 094°40'0 0.0
2018-Feb-18 05:52N 29°15' W 094°40'0 0.0
2018-Feb-18 05:28N 29°15' W 094°40'0 0.0
2018-Feb-18 04:55N 29°15' W 094°40'0 0.0
2018-Feb-17 05:40N 29°15' W 094°40'0 0.1
2018-Feb-17 05:28N 29°15' W 094°40'0 0.0
2018-Feb-17 02:25N 29°15' W 094°40'0 0.0
2018-Feb-17 01:58N 29°15' W 094°40'0 0.0
2018-Feb-17 01:28N 29°15' W 094°40'0 0.0
2018-Feb-17 00:58N 29°15' W 094°40'0 0.0
2018-Feb-17 00:25N 29°15' W 094°40'0 0.0
2018-Feb-16 02:58N 29°15' W 094°40'0 0.0
2018-Feb-16 02:13N 29°15' W 094°40'0 0.0
2018-Feb-16 01:43N 29°15' W 094°40'0 0.0
2018-Feb-16 01:13N 29°15' W 094°40'0 0.0
2018-Feb-16 00:58N 29°15' W 094°40'0 0.0
2018-Feb-16 00:25N 29°15' W 094°40'0 0.0
2018-Feb-15 23:55N 29°15' W 094°40'0 0.0
2018-Feb-15 05:07N 29°15' W 094°40'0 0.0
2018-Feb-15 04:43N 29°15' W 094°40'0 0.1
2018-Feb-15 04:28N 29°15' W 094°40'0 0.1
2018-Feb-15 03:55N 29°15' W 094°40'0 0.0
2018-Feb-15 03:22N 29°15' W 094°40'0 0.1
2018-Feb-15 02:58N 29°15' W 094°40'0 0.0
2018-Feb-15 02:28N 29°15' W 094°40'0 0.0
2018-Feb-15 01:58N 29°15' W 094°40'0 0.0
2018-Feb-14 23:52N 29°15' W 094°40'0 0.0
2018-Feb-14 23:10N 29°15' W 094°40'0 0.0
2018-Feb-14 19:34N 29°15' W 094°40'0 0.0
2018-Feb-14 19:04N 29°15' W 094°40'0 0.0
2018-Feb-14 18:40N 29°15' W 094°40'0 0.0
2018-Feb-14 17:04N 29°15' W 094°40'0 0.0
2018-Feb-14 16:37N 29°15' W 094°40'0 0.0
2018-Feb-14 16:22N 29°15' W 094°40'0 0.0
2018-Feb-14 15:52N 29°15' W 094°40'0 0.0
2018-Feb-14 15:04N 29°15' W 094°40'0 0.1
2018-Feb-14 14:58N 29°15' W 094°40'  
2018-Feb-12 02:46N 29°16' W 094°40'5 6.3
2018-Feb-12 01:58N 29°21' W 094°42'711.3
2018-Feb-12 01:21N 29°24' W 094°49'511.6
2018-Feb-12 00:53N 29°29' W 094°52'411.5
2018-Feb-12 00:30N 29°33' W 094°54'511.0
2018-Feb-12 00:00N 29°37' W 094°57'510.3
2018-Feb-11 23:30N 29°42' W 094°60'5 8.4
2018-Feb-11 22:54N 29°45' W 095°04'  
Track history (hours):
 
Tides and Currents Weather Stations Pressure Air Temp Water Temp Dewpoint Dewpoint Depression Visibility Wind Speed Wind Dir Waves Ship Positions

Lefkara

Last reported at 2018-Feb-20 05:38 UTC. Time now 2018-Feb-21 19:23 UTC.
Position N 29°45' W 095°11'.

Length 183 m; draft 8 m.

Type: Tanker. MMSI: 370573000.

Date/timePositionNaut miles runAvg speedWind from/ knotsBaromVisibWave heightAir tempDewpointWater temp
2018-Feb-20 05:38N 29°45' W 095°11'0 0.1
2018-Feb-20 05:30N 29°45' W 095°11'2 3.4
2018-Feb-20 04:52N 29°44' W 095°09'2 6.5
2018-Feb-20 04:29N 29°45' W 095°06'3 5.4
2018-Feb-20 04:00N 29°44' W 095°03'4 7.9
2018-Feb-20 03:30N 29°42' W 094°60'611.5
2018-Feb-20 03:00N 29°36' W 094°57'612.3
2018-Feb-20 02:30N 29°31' W 094°53'713.2
2018-Feb-20 02:00N 29°25' W 094°50'13 2.1
2018-Feb-19 19:43N 29°15' W 094°40'0 0.0
2018-Feb-19 19:28N 29°15' W 094°40'0 0.0
2018-Feb-19 17:16N 29°15' W 094°40'0 0.1
2018-Feb-19 16:40N 29°15' W 094°40'0 0.1
2018-Feb-19 16:19N 29°15' W 094°40'0 0.0
2018-Feb-19 15:01N 29°15' W 094°40'0 0.0
2018-Feb-19 14:49N 29°15' W 094°40'0 0.0
2018-Feb-19 14:19N 29°15' W 094°40'0 0.0
2018-Feb-19 13:46N 29°15' W 094°40'0 0.1
2018-Feb-19 13:28N 29°15' W 094°40'0 0.0
2018-Feb-19 10:52N 29°15' W 094°40'0 0.0
2018-Feb-19 10:07N 29°15' W 094°40'0 0.0
2018-Feb-19 09:34N 29°15' W 094°40'0 0.0
2018-Feb-19 09:28N 29°15' W 094°40'0 0.0
2018-Feb-19 08:55N 29°15' W 094°40'0 0.0
2018-Feb-19 08:25N 29°15' W 094°40'0 0.0
2018-Feb-19 07:55N 29°15' W 094°40'0 0.0
2018-Feb-19 07:28N 29°15' W 094°40'0 0.0
2018-Feb-19 06:52N 29°15' W 094°40'0 0.0
2018-Feb-19 05:19N 29°15' W 094°40'0 0.1
2018-Feb-19 04:58N 29°15' W 094°40'0 0.0
2018-Feb-19 04:28N 29°15' W 094°40'0 0.0
2018-Feb-18 08:40N 29°15' W 094°40'0 0.0
2018-Feb-18 07:25N 29°15' W 094°40'0 0.0
2018-Feb-18 05:52N 29°15' W 094°40'0 0.0
2018-Feb-18 05:28N 29°15' W 094°40'0 0.0
2018-Feb-18 04:55N 29°15' W 094°40'0 0.0
2018-Feb-17 05:40N 29°15' W 094°40'0 0.1
2018-Feb-17 05:28N 29°15' W 094°40'0 0.0
2018-Feb-17 02:25N 29°15' W 094°40'0 0.0
2018-Feb-17 01:58N 29°15' W 094°40'0 0.0
2018-Feb-17 01:28N 29°15' W 094°40'0 0.0
2018-Feb-17 00:58N 29°15' W 094°40'0 0.0
2018-Feb-17 00:25N 29°15' W 094°40'0 0.0
2018-Feb-16 02:58N 29°15' W 094°40'0 0.0
2018-Feb-16 02:13N 29°15' W 094°40'0 0.0
2018-Feb-16 01:43N 29°15' W 094°40'0 0.0
2018-Feb-16 01:13N 29°15' W 094°40'0 0.0
2018-Feb-16 00:58N 29°15' W 094°40'0 0.0
2018-Feb-16 00:25N 29°15' W 094°40'0 0.0
2018-Feb-15 23:55N 29°15' W 094°40'0 0.0
2018-Feb-15 05:07N 29°15' W 094°40'0 0.0
2018-Feb-15 04:43N 29°15' W 094°40'0 0.1
2018-Feb-15 04:28N 29°15' W 094°40'0 0.1
2018-Feb-15 03:55N 29°15' W 094°40'0 0.0
2018-Feb-15 03:22N 29°15' W 094°40'0 0.1
2018-Feb-15 02:58N 29°15' W 094°40'0 0.0
2018-Feb-15 02:28N 29°15' W 094°40'0 0.0
2018-Feb-15 01:58N 29°15' W 094°40'0 0.0
2018-Feb-14 23:52N 29°15' W 094°40'0 0.0
2018-Feb-14 23:10N 29°15' W 094°40'0 0.0
2018-Feb-14 19:34N 29°15' W 094°40'0 0.0
2018-Feb-14 19:04N 29°15' W 094°40'0 0.0
2018-Feb-14 18:40N 29°15' W 094°40'0 0.0
2018-Feb-14 17:04N 29°15' W 094°40'0 0.0
2018-Feb-14 16:37N 29°15' W 094°40'0 0.0
2018-Feb-14 16:22N 29°15' W 094°40'0 0.0
2018-Feb-14 15:52N 29°15' W 094°40'0 0.0
2018-Feb-14 15:04N 29°15' W 094°40'0 0.1
2018-Feb-14 14:58N 29°15' W 094°40'  
2018-Feb-12 02:46N 29°16' W 094°40'5 6.3
2018-Feb-12 01:58N 29°21' W 094°42'711.3
2018-Feb-12 01:21N 29°24' W 094°49'511.6
2018-Feb-12 00:53N 29°29' W 094°52'411.5
2018-Feb-12 00:30N 29°33' W 094°54'511.0
2018-Feb-12 00:00N 29°37' W 094°57'510.3
2018-Feb-11 23:30N 29°42' W 094°60'5 8.4
2018-Feb-11 22:54N 29°45' W 095°04'  

Dump ship's entire track history